sensor_id;sensor_type;location;lat;lon;timestamp;temperature;humidity
75782;DHT22;64400;44.762;37.698;2023-09-08T00:02:07;25.16;57.55
75782;DHT22;64400;44.762;37.698;2023-09-08T00:04:38;25.14;57.43
75782;DHT22;64400;44.762;37.698;2023-09-08T00:07:08;25.13;57.44
75782;DHT22;64400;44.762;37.698;2023-09-08T00:09:37;25.12;57.29
75782;DHT22;64400;44.762;37.698;2023-09-08T00:12:06;25.09;57.54
75782;DHT22;64400;44.762;37.698;2023-09-08T00:14:36;25.10;57.43
75782;DHT22;64400;44.762;37.698;2023-09-08T00:17:05;25.07;57.06
75782;DHT22;64400;44.762;37.698;2023-09-08T00:19:34;25.07;57.09
75782;DHT22;64400;44.762;37.698;2023-09-08T00:22:04;25.05;56.97
75782;DHT22;64400;44.762;37.698;2023-09-08T00:24:36;25.04;57.04
75782;DHT22;64400;44.762;37.698;2023-09-08T00:27:06;25.02;57.05
75782;DHT22;64400;44.762;37.698;2023-09-08T00:29:35;25.01;56.85
75782;DHT22;64400;44.762;37.698;2023-09-08T00:32:04;25.00;56.82
75782;DHT22;64400;44.762;37.698;2023-09-08T00:34:34;24.99;56.97
75782;DHT22;64400;44.762;37.698;2023-09-08T00:37:03;24.95;57.06
75782;DHT22;64400;44.762;37.698;2023-09-08T00:39:37;24.95;57.20
75782;DHT22;64400;44.762;37.698;2023-09-08T00:42:06;24.94;57.13
75782;DHT22;64400;44.762;37.698;2023-09-08T00:44:40;24.91;56.96
75782;DHT22;64400;44.762;37.698;2023-09-08T00:47:10;24.90;56.77
75782;DHT22;64400;44.762;37.698;2023-09-08T00:49:40;24.88;56.84
75782;DHT22;64400;44.762;37.698;2023-09-08T00:52:11;24.88;56.77
75782;DHT22;64400;44.762;37.698;2023-09-08T00:54:41;24.86;56.57
75782;DHT22;64400;44.762;37.698;2023-09-08T00:57:12;24.84;56.59
75782;DHT22;64400;44.762;37.698;2023-09-08T00:59:43;24.80;56.32
75782;DHT22;64400;44.762;37.698;2023-09-08T01:02:14;24.79;56.45
75782;DHT22;64400;44.762;37.698;2023-09-08T01:04:44;24.78;56.32
75782;DHT22;64400;44.762;37.698;2023-09-08T01:07:15;24.78;56.27
75782;DHT22;64400;44.762;37.698;2023-09-08T01:09:47;24.76;56.38
75782;DHT22;64400;44.762;37.698;2023-09-08T01:12:19;24.76;56.30
75782;DHT22;64400;44.762;37.698;2023-09-08T01:14:49;24.74;56.05
75782;DHT22;64400;44.762;37.698;2023-09-08T01:17:18;24.71;55.95
75782;DHT22;64400;44.762;37.698;2023-09-08T01:19:48;24.70;55.90
75782;DHT22;64400;44.762;37.698;2023-09-08T01:22:35;24.68;55.87
75782;DHT22;64400;44.762;37.698;2023-09-08T01:25:23;24.66;55.67
75782;DHT22;64400;44.762;37.698;2023-09-08T01:27:54;24.63;55.70
75782;DHT22;64400;44.762;37.698;2023-09-08T01:30:28;24.62;55.58
75782;DHT22;64400;44.762;37.698;2023-09-08T01:32:58;24.60;55.24
75782;DHT22;64400;44.762;37.698;2023-09-08T01:35:28;24.61;55.21
75782;DHT22;64400;44.762;37.698;2023-09-08T01:37:59;24.58;55.05
75782;DHT22;64400;44.762;37.698;2023-09-08T01:40:31;24.58;55.10
75782;DHT22;64400;44.762;37.698;2023-09-08T01:43:01;24.54;55.10
75782;DHT22;64400;44.762;37.698;2023-09-08T01:45:31;24.51;55.09
75782;DHT22;64400;44.762;37.698;2023-09-08T01:48:00;24.49;55.29
75782;DHT22;64400;44.762;37.698;2023-09-08T01:50:30;24.47;55.31
75782;DHT22;64400;44.762;37.698;2023-09-08T01:52:59;24.46;55.25
75782;DHT22;64400;44.762;37.698;2023-09-08T01:55:29;24.43;55.36
75782;DHT22;64400;44.762;37.698;2023-09-08T01:57:59;24.42;55.33
75782;DHT22;64400;44.762;37.698;2023-09-08T02:00:28;24.40;55.19
75782;DHT22;64400;44.762;37.698;2023-09-08T02:02:57;24.38;55.08
75782;DHT22;64400;44.762;37.698;2023-09-08T02:05:28;24.36;55.20
75782;DHT22;64400;44.762;37.698;2023-09-08T02:07:57;24.35;55.14
75782;DHT22;64400;44.762;37.698;2023-09-08T02:10:26;24.34;55.05
75782;DHT22;64400;44.762;37.698;2023-09-08T02:12:55;24.32;55.05
75782;DHT22;64400;44.762;37.698;2023-09-08T02:15:24;24.30;54.84
75782;DHT22;64400;44.762;37.698;2023-09-08T02:17:54;24.29;54.89
75782;DHT22;64400;44.762;37.698;2023-09-08T02:20:47;24.25;54.68
75782;DHT22;64400;44.762;37.698;2023-09-08T02:23:16;24.26;54.70
75782;DHT22;64400;44.762;37.698;2023-09-08T02:25:45;24.23;54.82
75782;DHT22;64400;44.762;37.698;2023-09-08T02:28:15;24.23;54.68
75782;DHT22;64400;44.762;37.698;2023-09-08T02:30:44;24.20;54.75
75782;DHT22;64400;44.762;37.698;2023-09-08T02:33:13;24.17;54.57
75782;DHT22;64400;44.762;37.698;2023-09-08T02:35:43;24.15;54.55
75782;DHT22;64400;44.762;37.698;2023-09-08T02:38:14;24.14;54.54
75782;DHT22;64400;44.762;37.698;2023-09-08T02:40:43;24.13;54.51
75782;DHT22;64400;44.762;37.698;2023-09-08T02:43:13;24.11;54.59
75782;DHT22;64400;44.762;37.698;2023-09-08T02:45:42;24.10;54.48
75782;DHT22;64400;44.762;37.698;2023-09-08T02:48:11;24.08;54.38
75782;DHT22;64400;44.762;37.698;2023-09-08T02:50:41;24.05;54.30
75782;DHT22;64400;44.762;37.698;2023-09-08T02:53:10;24.04;54.43
75782;DHT22;64400;44.762;37.698;2023-09-08T02:55:39;24.04;54.38
75782;DHT22;64400;44.762;37.698;2023-09-08T02:58:08;24.02;54.37
75782;DHT22;64400;44.762;37.698;2023-09-08T03:00:37;24.01;54.22
75782;DHT22;64400;44.762;37.698;2023-09-08T03:03:07;24.00;54.59
75782;DHT22;64400;44.762;37.698;2023-09-08T03:05:37;23.99;54.39
75782;DHT22;64400;44.762;37.698;2023-09-08T03:08:06;23.98;54.43
75782;DHT22;64400;44.762;37.698;2023-09-08T03:10:35;23.98;54.42
75782;DHT22;64400;44.762;37.698;2023-09-08T03:13:05;23.96;54.36
75782;DHT22;64400;44.762;37.698;2023-09-08T03:15:34;23.96;54.48
75782;DHT22;64400;44.762;37.698;2023-09-08T03:18:04;23.95;54.40
75782;DHT22;64400;44.762;37.698;2023-09-08T03:20:34;23.94;54.27
75782;DHT22;64400;44.762;37.698;2023-09-08T03:23:03;23.94;54.33
75782;DHT22;64400;44.762;37.698;2023-09-08T03:25:33;23.92;54.41
75782;DHT22;64400;44.762;37.698;2023-09-08T03:28:03;23.91;54.38
75782;DHT22;64400;44.762;37.698;2023-09-08T03:30:33;23.91;54.44
75782;DHT22;64400;44.762;37.698;2023-09-08T03:33:03;23.90;54.52
75782;DHT22;64400;44.762;37.698;2023-09-08T03:35:33;23.90;54.39
75782;DHT22;64400;44.762;37.698;2023-09-08T03:38:02;23.90;54.40
75782;DHT22;64400;44.762;37.698;2023-09-08T03:40:33;23.89;54.41
75782;DHT22;64400;44.762;37.698;2023-09-08T03:43:02;23.88;54.30
75782;DHT22;64400;44.762;37.698;2023-09-08T03:45:33;23.88;54.33
75782;DHT22;64400;44.762;37.698;2023-09-08T03:48:02;23.88;54.37
75782;DHT22;64400;44.762;37.698;2023-09-08T03:50:32;23.89;54.36
75782;DHT22;64400;44.762;37.698;2023-09-08T03:53:02;23.88;54.25
75782;DHT22;64400;44.762;37.698;2023-09-08T03:55:33;23.87;52.75
75782;DHT22;64400;44.762;37.698;2023-09-08T03:58:02;23.85;52.75
75782;DHT22;64400;44.762;37.698;2023-09-08T04:00:31;23.83;52.16
75782;DHT22;64400;44.762;37.698;2023-09-08T04:03:01;23.80;51.62
75782;DHT22;64400;44.762;37.698;2023-09-08T04:05:32;23.77;51.48
75782;DHT22;64400;44.762;37.698;2023-09-08T04:08:02;23.76;51.09
75782;DHT22;64400;44.762;37.698;2023-09-08T04:10:33;23.73;51.11
75782;DHT22;64400;44.762;37.698;2023-09-08T04:13:04;23.72;50.65
75782;DHT22;64400;44.762;37.698;2023-09-08T04:15:34;23.72;50.07
75782;DHT22;64400;44.762;37.698;2023-09-08T04:18:04;23.76;49.25
75782;DHT22;64400;44.762;37.698;2023-09-08T04:20:34;23.96;47.92
75782;DHT22;64400;44.762;37.698;2023-09-08T04:23:03;23.96;48.42
75782;DHT22;64400;44.762;37.698;2023-09-08T06:32:34;24.25;47.64
